createdAt,value
2022-09-02T00:00:59.930Z,1.60
2022-09-02T00:03:31.307Z,1.70
2022-09-02T00:05:58.744Z,1.40
2022-09-02T00:08:25.923Z,1.50
2022-09-02T00:10:53.875Z,1.70
2022-09-02T00:13:21.597Z,1.53
2022-09-02T00:15:49.376Z,1.63
2022-09-02T00:18:18.111Z,1.77
2022-09-02T00:20:47.973Z,1.60
2022-09-02T00:23:16.634Z,1.40
2022-09-02T00:25:45.307Z,1.60
2022-09-02T00:28:13.203Z,1.70
2022-09-02T00:30:40.439Z,1.80
2022-09-02T00:33:08.215Z,1.30
2022-09-02T00:35:35.734Z,1.60
2022-09-02T00:38:02.904Z,1.57
2022-09-02T00:40:30.830Z,1.50
2022-09-02T00:42:58.009Z,1.47
2022-09-02T00:45:25.265Z,1.50
2022-09-02T00:47:52.581Z,1.70
2022-09-02T00:50:23.759Z,1.50
2022-09-02T00:52:56.616Z,1.60
2022-09-02T00:55:25.631Z,1.40
2022-09-02T00:58:09.593Z,1.30
2022-09-02T01:00:38.959Z,1.50
2022-09-02T01:03:07.858Z,1.47
2022-09-02T01:05:40.553Z,1.90
2022-09-02T01:08:10.376Z,1.80
2022-09-02T01:10:37.644Z,1.60
2022-09-02T01:13:08.306Z,1.23
2022-09-02T01:15:37.367Z,1.50
2022-09-02T01:18:07.827Z,1.50
2022-09-02T01:20:34.982Z,1.43
2022-09-02T01:23:02.396Z,1.30
2022-09-02T01:25:31.631Z,1.60
2022-09-02T01:28:02.880Z,1.70
2022-09-02T01:30:30.616Z,1.50
2022-09-02T01:32:57.785Z,1.50
2022-09-02T01:35:24.950Z,1.50
2022-09-02T01:37:55.752Z,1.70
2022-09-02T01:40:23.406Z,1.67
2022-09-02T01:42:54.223Z,1.30
2022-09-02T01:45:22.137Z,1.50
2022-09-02T01:47:49.553Z,1.50
2022-09-02T01:50:17.230Z,1.30
2022-09-02T01:52:44.397Z,1.23
2022-09-02T01:55:11.560Z,1.50
2022-09-02T01:57:38.812Z,1.40
2022-09-02T02:00:07.315Z,1.50
2022-09-02T02:02:34.488Z,1.40
2022-09-02T02:05:02.749Z,1.60
2022-09-02T02:07:29.995Z,1.37
2022-09-02T02:09:57.207Z,1.40
2022-09-02T02:12:24.389Z,1.50
2022-09-02T02:14:51.742Z,1.70
2022-09-02T02:17:22.141Z,1.50
2022-09-02T02:19:49.337Z,1.50
2022-09-02T02:22:17.452Z,1.50
2022-09-02T02:24:44.604Z,1.70
2022-09-02T02:27:11.714Z,1.70
2022-09-02T02:29:38.971Z,1.50
2022-09-02T02:32:07.516Z,1.50
2022-09-02T02:34:35.382Z,1.77
2022-09-02T02:37:02.509Z,1.70
2022-09-02T02:39:29.729Z,1.70
2022-09-02T02:41:56.848Z,1.40
2022-09-02T02:44:24.793Z,1.60
2022-09-02T02:46:51.999Z,1.60
2022-09-02T02:49:19.243Z,1.50
2022-09-02T02:51:46.371Z,1.63
2022-09-02T02:54:14.576Z,1.57
2022-09-02T02:56:41.818Z,1.57
2022-09-02T02:59:09.069Z,1.40
2022-09-02T03:01:36.441Z,1.50
2022-09-02T03:04:04.149Z,1.50
2022-09-02T03:06:31.273Z,1.70
2022-09-02T03:08:59.737Z,1.33
2022-09-02T03:11:28.393Z,1.40
2022-09-02T03:13:56.072Z,1.63
2022-09-02T03:16:23.398Z,1.40
2022-09-02T03:18:51.366Z,1.60
2022-09-02T03:21:19.188Z,1.70
2022-09-02T03:23:46.886Z,1.77
2022-09-02T03:26:18.846Z,1.57
2022-09-02T03:28:47.557Z,1.67
2022-09-02T03:31:16.756Z,1.77
2022-09-02T03:33:44.034Z,1.80
2022-09-02T03:36:19.861Z,1.83
2022-09-02T03:38:46.988Z,2.07
2022-09-02T03:41:14.153Z,2.07
2022-09-02T03:43:41.458Z,1.73
2022-09-02T03:46:10.204Z,2.00
2022-09-02T03:48:37.471Z,1.87
2022-09-02T03:51:05.634Z,1.80
2022-09-02T03:53:33.158Z,1.70
2022-09-02T03:56:05.175Z,1.80
2022-09-02T03:58:32.767Z,1.63
2022-09-02T04:01:00.112Z,1.67
2022-09-02T04:03:27.842Z,1.83
2022-09-02T04:05:55.114Z,1.67
2022-09-02T04:08:22.285Z,1.90
2022-09-02T04:10:49.642Z,1.80
2022-09-02T04:13:17.285Z,1.67
2022-09-02T04:15:47.882Z,1.70
2022-09-02T04:18:17.255Z,1.60
2022-09-02T04:20:44.968Z,1.90
2022-09-02T04:23:12.190Z,1.87
2022-09-02T04:25:40.851Z,1.60
2022-09-02T04:28:08.119Z,1.57
2022-09-02T04:30:35.335Z,1.70
2022-09-02T04:33:02.485Z,1.60
2022-09-02T04:35:29.709Z,1.93
2022-09-02T04:37:56.836Z,1.80
2022-09-02T04:40:24.451Z,1.60
2022-09-02T04:42:55.358Z,1.83
2022-09-02T04:45:26.585Z,1.90
2022-09-02T04:47:56.341Z,2.00
2022-09-02T04:50:23.491Z,1.70
2022-09-02T04:52:51.029Z,1.80
2022-09-02T04:55:18.246Z,1.77
2022-09-02T04:57:45.369Z,1.80
2022-09-02T05:00:12.977Z,1.73
2022-09-02T05:02:40.996Z,1.63
2022-09-02T05:05:08.474Z,1.60
2022-09-02T05:07:37.518Z,1.83
2022-09-02T05:10:05.404Z,1.83
2022-09-02T05:12:34.550Z,2.00
2022-09-02T05:15:01.962Z,1.70
2022-09-02T05:17:32.058Z,2.07
2022-09-02T05:19:59.600Z,2.10
2022-09-02T05:22:29.396Z,1.90
2022-09-02T05:24:56.931Z,1.90
2022-09-02T05:27:24.110Z,2.00
2022-09-02T05:29:59.493Z,1.77
2022-09-02T05:32:27.811Z,2.07
2022-09-02T05:34:56.046Z,1.80
2022-09-02T05:37:24.555Z,2.30
2022-09-02T05:39:52.262Z,2.00
2022-09-02T05:42:20.628Z,1.93
2022-09-02T05:44:48.489Z,2.10
2022-09-02T05:47:15.677Z,2.10
2022-09-02T05:49:42.990Z,2.20
2022-09-02T05:52:11.829Z,2.37
2022-09-02T05:54:40.163Z,1.97
2022-09-02T05:57:09.335Z,2.20
2022-09-02T05:59:39.045Z,2.17
2022-09-02T06:02:06.501Z,2.03
2022-09-02T06:04:37.549Z,3.03
2022-09-02T06:07:04.684Z,2.40
2022-09-02T06:09:31.815Z,2.17
2022-09-02T06:11:58.932Z,2.10
2022-09-02T06:14:26.908Z,2.23
2022-09-02T06:16:54.939Z,2.23
2022-09-02T06:19:25.191Z,2.20
2022-09-02T06:21:52.898Z,2.23
2022-09-02T06:24:20.046Z,2.10
2022-09-02T06:26:56.415Z,2.10
2022-09-02T06:29:24.427Z,2.00
2022-09-02T06:31:51.911Z,2.13
2022-09-02T06:34:20.979Z,2.57
2022-09-02T06:36:49.144Z,2.40
2022-09-02T06:39:18.267Z,2.30
2022-09-02T06:41:49.224Z,2.23
2022-09-02T06:44:17.603Z,2.20
2022-09-02T06:46:47.755Z,2.43
2022-09-02T06:49:16.400Z,2.30
2022-09-02T06:51:45.727Z,2.37
2022-09-02T06:54:14.413Z,2.13
2022-09-02T06:56:44.867Z,2.30
2022-09-02T06:59:15.816Z,1.93
2022-09-02T07:01:44.031Z,2.10
2022-09-02T07:04:29.894Z,2.00
2022-09-02T07:06:57.762Z,1.90
2022-09-02T07:09:31.376Z,2.10
2022-09-02T07:12:04.200Z,2.13
2022-09-02T07:14:33.081Z,1.80
2022-09-02T07:17:00.443Z,1.70
2022-09-02T07:19:27.712Z,1.90
2022-09-02T07:21:54.975Z,1.87
2022-09-02T07:24:22.208Z,1.90
2022-09-02T07:26:49.840Z,1.90
2022-09-02T07:29:22.533Z,1.70
2022-09-02T07:31:50.120Z,1.53
2022-09-02T07:34:17.873Z,1.67
2022-09-02T07:36:48.593Z,1.63
2022-09-02T07:39:16.682Z,1.57
2022-09-02T07:41:44.775Z,1.60
2022-09-02T07:44:12.293Z,1.67
2022-09-02T07:46:39.745Z,1.60
2022-09-02T07:49:09.331Z,1.23
2022-09-02T07:51:38.525Z,1.30
2022-09-02T07:54:06.563Z,1.43
2022-09-02T07:56:34.124Z,1.23
2022-09-02T07:59:01.258Z,1.50
2022-09-02T08:01:28.569Z,1.10
2022-09-02T08:03:55.885Z,1.10
2022-09-02T08:06:33.620Z,1.00
2022-09-02T08:09:01.911Z,1.20
2022-09-02T08:11:29.088Z,1.20
2022-09-02T08:13:56.372Z,0.90
2022-09-02T08:16:23.522Z,0.90
2022-09-02T08:18:51.796Z,1.00
2022-09-02T08:21:18.972Z,1.00
2022-09-02T08:23:49.242Z,0.90
2022-09-02T08:26:17.296Z,0.70
2022-09-02T08:28:44.464Z,0.80
2022-09-02T08:31:11.713Z,0.80
2022-09-02T08:33:39.022Z,0.73
2022-09-02T08:36:08.396Z,0.60
2022-09-02T08:38:36.722Z,0.70
2022-09-02T08:41:04.119Z,0.80
2022-09-02T08:43:38.429Z,0.60
2022-09-02T08:46:06.656Z,0.50
2022-09-02T08:48:46.024Z,0.40
2022-09-02T08:51:22.475Z,0.73
2022-09-02T08:53:58.923Z,0.50
2022-09-02T08:56:29.191Z,0.50
2022-09-02T08:59:02.249Z,0.43
2022-09-02T09:01:48.147Z,0.50
2022-09-02T09:04:18.551Z,0.47
2022-09-02T09:07:07.559Z,0.60
2022-09-02T09:09:38.230Z,0.50
2022-09-02T09:12:08.076Z,0.47
2022-09-02T09:14:38.039Z,0.30
2022-09-02T09:17:17.863Z,0.30
2022-09-02T09:19:55.445Z,0.40
2022-09-02T09:22:29.373Z,0.50
2022-09-02T09:24:57.804Z,0.30
2022-09-02T09:27:25.250Z,0.50
2022-09-02T09:29:53.346Z,0.40
2022-09-02T09:32:26.507Z,0.60
2022-09-02T09:34:54.115Z,0.30
2022-09-02T09:37:35.867Z,0.50
2022-09-02T09:40:22.158Z,0.30
2022-09-02T09:43:14.658Z,0.50
2022-09-02T09:45:51.494Z,0.53
2022-09-02T09:48:19.250Z,0.40
2022-09-02T09:50:47.841Z,0.30
2022-09-02T09:53:34.123Z,0.30
2022-09-02T09:56:05.207Z,0.40
2022-09-02T09:58:41.575Z,0.43
2022-09-02T10:01:19.944Z,0.60
2022-09-02T10:03:55.919Z,0.60
2022-09-02T10:06:32.245Z,0.60
2022-09-02T10:09:00.927Z,0.50
2022-09-02T10:11:28.088Z,0.60
2022-09-02T10:13:58.101Z,0.63
2022-09-02T10:16:29.618Z,0.50
2022-09-02T10:19:00.042Z,0.50
2022-09-02T10:21:36.585Z,0.50
2022-09-02T10:24:22.262Z,0.40
2022-09-02T10:26:51.450Z,0.50
2022-09-02T10:29:21.320Z,0.50
2022-09-02T10:31:48.535Z,0.50
2022-09-02T10:34:24.825Z,0.30
2022-09-02T10:36:51.957Z,0.50
2022-09-02T10:39:28.228Z,0.40
2022-09-02T10:41:59.618Z,0.50
2022-09-02T10:44:31.085Z,0.40
2022-09-02T10:46:58.249Z,0.50
2022-09-02T10:49:37.927Z,0.50
2022-09-02T10:54:48.555Z,0.50
2022-09-02T10:57:15.734Z,0.70
2022-09-02T10:59:48.347Z,0.70
2022-09-02T11:02:15.769Z,0.70
2022-09-02T11:04:54.853Z,0.80
2022-09-02T11:07:25.644Z,0.70
2022-09-02T11:10:06.637Z,0.47
2022-09-02T11:12:35.701Z,0.50
2022-09-02T11:15:05.616Z,0.50
2022-09-02T11:17:51.218Z,0.70
2022-09-02T11:20:38.593Z,0.50
2022-09-02T11:23:18.921Z,0.63
2022-09-02T11:25:54.372Z,0.70
2022-09-02T11:28:24.333Z,0.30
2022-09-02T11:30:56.461Z,0.40
2022-09-02T11:33:29.101Z,0.40
2022-09-02T11:35:58.655Z,0.50
2022-09-02T11:38:34.877Z,0.60
2022-09-02T11:44:34.207Z,0.40
2022-09-02T11:47:02.437Z,0.40
2022-09-02T11:49:48.136Z,0.50
2022-09-02T11:55:04.972Z,0.40
2022-09-02T11:57:32.879Z,0.50
2022-09-02T12:00:00.014Z,0.43
2022-09-02T12:02:50.495Z,0.40
2022-09-02T12:05:30.327Z,0.40
2022-09-02T12:07:58.940Z,0.47
2022-09-02T12:10:42.369Z,0.40
2022-09-02T12:13:12.279Z,0.30
2022-09-02T12:15:43.834Z,0.40
2022-09-02T12:18:31.051Z,0.37
2022-09-02T12:20:58.320Z,0.33
2022-09-02T12:23:44.479Z,0.40
2022-09-02T12:26:15.861Z,0.40
2022-09-02T12:28:46.333Z,0.40
2022-09-02T12:31:15.811Z,0.40
2022-09-02T12:33:45.313Z,0.43
2022-09-02T12:36:32.773Z,0.50
2022-09-02T12:39:18.716Z,0.40
2022-09-02T12:41:47.073Z,0.40
2022-09-02T12:44:21.577Z,0.50
2022-09-02T12:47:15.145Z,0.37
2022-09-02T12:49:46.579Z,0.40
2022-09-02T12:52:33.746Z,0.40
2022-09-02T12:55:19.265Z,0.43
2022-09-02T12:57:53.741Z,0.47
2022-09-02T13:00:30.744Z,0.50
2022-09-02T13:02:57.869Z,0.60
2022-09-02T13:05:28.361Z,0.50
2022-09-02T13:08:14.440Z,0.53
2022-09-02T13:11:08.427Z,0.50
2022-09-02T13:13:38.644Z,0.40
2022-09-02T13:16:18.816Z,0.40
2022-09-02T13:18:58.433Z,0.50
2022-09-02T13:21:37.491Z,0.60
2022-09-02T13:24:14.021Z,0.70
2022-09-02T13:27:01.308Z,0.40
2022-09-02T13:29:30.399Z,0.30
2022-09-02T13:32:02.597Z,0.43
2022-09-02T13:34:30.384Z,0.53
2022-09-02T13:36:57.534Z,0.50
2022-09-02T13:39:28.463Z,0.60
2022-09-02T13:41:57.220Z,0.57
2022-09-02T13:44:24.655Z,0.50
2022-09-02T13:47:12.021Z,0.57
2022-09-02T13:49:41.564Z,0.60
2022-09-02T13:52:16.899Z,0.40
2022-09-02T13:54:46.092Z,0.50
2022-09-02T13:57:18.237Z,0.47
2022-09-02T13:59:50.304Z,0.37
2022-09-02T14:02:22.403Z,0.40
2022-09-02T14:04:51.034Z,0.30
2022-09-02T14:07:27.142Z,0.60
2022-09-02T14:09:58.796Z,0.40
2022-09-02T14:12:26.441Z,0.50
2022-09-02T14:14:53.800Z,0.60
2022-09-02T14:17:25.037Z,0.60
2022-09-02T14:19:52.856Z,0.60
2022-09-02T14:22:22.775Z,0.60
2022-09-02T14:24:49.944Z,0.60
2022-09-02T14:27:18.442Z,0.70
2022-09-02T14:29:46.699Z,0.70
2022-09-02T14:32:22.205Z,0.50
2022-09-02T14:34:49.999Z,0.50
2022-09-02T14:37:23.000Z,0.60
2022-09-02T14:40:12.776Z,0.80
2022-09-02T14:42:47.253Z,0.50
2022-09-02T14:45:14.692Z,0.50
2022-09-02T14:47:42.705Z,0.90
2022-09-02T14:50:11.859Z,0.70
2022-09-02T14:52:45.723Z,0.70
2022-09-02T14:55:32.814Z,0.50
2022-09-02T14:58:03.355Z,0.40
2022-09-02T15:00:34.677Z,0.57
2022-09-02T15:03:02.016Z,0.60
2022-09-02T15:05:29.675Z,0.60
2022-09-02T15:07:56.932Z,0.60
2022-09-02T15:10:24.121Z,0.50
2022-09-02T15:12:52.824Z,0.80
2022-09-02T15:15:20.099Z,0.53
2022-09-02T15:17:47.365Z,0.70
2022-09-02T15:20:15.557Z,0.67
2022-09-02T15:22:43.321Z,0.87
2022-09-02T15:25:10.854Z,0.60
2022-09-02T15:27:38.062Z,0.60
2022-09-02T15:30:06.129Z,0.80
2022-09-02T15:32:33.342Z,0.73
2022-09-02T15:35:00.513Z,0.67
2022-09-02T15:37:27.951Z,0.90
2022-09-02T15:39:55.974Z,0.60
2022-09-02T15:42:23.138Z,0.70
2022-09-02T15:44:50.284Z,0.73
2022-09-02T15:47:17.397Z,0.60
2022-09-02T15:49:44.611Z,0.67
2022-09-02T15:52:11.728Z,0.50
2022-09-02T15:54:38.886Z,0.80
2022-09-02T15:57:06.734Z,0.60
2022-09-02T15:59:33.898Z,0.80
2022-09-02T16:02:01.276Z,0.50
2022-09-02T16:04:29.361Z,0.60
2022-09-02T16:06:56.633Z,0.70
2022-09-02T16:09:23.851Z,0.70
2022-09-02T16:11:52.312Z,0.70
2022-09-02T16:14:21.470Z,0.70
2022-09-02T16:16:49.754Z,0.57
2022-09-02T16:19:20.347Z,0.50
2022-09-02T16:21:47.601Z,0.80
2022-09-02T16:24:14.802Z,0.60
2022-09-02T16:26:42.686Z,0.70
2022-09-02T16:29:11.040Z,0.60
2022-09-02T16:31:39.828Z,0.70
2022-09-02T16:34:18.119Z,0.70
2022-09-02T16:36:46.284Z,0.50
2022-09-02T16:39:14.420Z,0.67
2022-09-02T16:41:43.933Z,0.70
2022-09-02T16:44:16.125Z,0.70
2022-09-02T16:46:44.166Z,0.90
2022-09-02T16:49:12.509Z,0.70
2022-09-02T16:51:40.929Z,0.70
2022-09-02T16:54:09.596Z,0.70
2022-09-02T16:56:45.125Z,0.70
2022-09-02T16:59:13.024Z,0.60
2022-09-02T17:01:40.770Z,0.70
2022-09-02T17:04:08.543Z,0.67
2022-09-02T17:06:41.360Z,0.90
2022-09-02T17:09:09.535Z,0.67
2022-09-02T17:11:39.666Z,0.70
2022-09-02T17:14:10.875Z,0.60
2022-09-02T17:16:40.458Z,0.70
2022-09-02T17:19:08.078Z,0.60
2022-09-02T17:21:45.475Z,0.60
2022-09-02T17:24:13.565Z,0.70
2022-09-02T17:26:42.261Z,0.87
2022-09-02T17:29:17.380Z,0.80
2022-09-02T17:31:57.867Z,0.80
2022-09-02T17:34:26.015Z,0.90
2022-09-02T17:36:53.403Z,0.80
2022-09-02T17:39:21.755Z,0.87
2022-09-02T17:41:55.045Z,0.60
2022-09-02T17:44:23.433Z,0.70
2022-09-02T17:46:51.073Z,0.60
2022-09-02T17:49:18.959Z,0.77
2022-09-02T17:51:47.363Z,0.93
2022-09-02T17:54:15.147Z,0.87
2022-09-02T17:56:46.141Z,0.80
2022-09-02T17:59:20.656Z,0.97
2022-09-02T18:02:08.052Z,1.20
2022-09-02T18:04:50.285Z,0.87
2022-09-02T18:07:27.671Z,0.73
2022-09-02T18:09:55.077Z,0.63
2022-09-02T18:12:22.294Z,0.73
2022-09-02T18:14:51.713Z,0.77
2022-09-02T18:17:18.858Z,0.80
2022-09-02T18:19:50.830Z,0.80
2022-09-02T18:22:23.978Z,0.70
2022-09-02T18:24:51.098Z,0.63
2022-09-02T18:27:24.451Z,0.70
2022-09-02T18:29:52.776Z,0.63
2022-09-02T18:32:32.167Z,0.87
2022-09-02T18:34:59.303Z,0.80
2022-09-02T18:37:32.576Z,0.70
2022-09-02T18:40:12.526Z,0.70
2022-09-02T18:42:39.613Z,0.60
2022-09-02T18:45:06.960Z,0.80
2022-09-02T18:47:46.704Z,0.80
2022-09-02T18:50:44.987Z,0.80
2022-09-02T18:53:06.847Z,0.80
2022-09-02T18:55:37.794Z,0.73
2022-09-02T18:58:07.806Z,0.80
2022-09-02T19:00:42.567Z,0.80
2022-09-02T19:03:09.826Z,0.60
2022-09-02T19:05:37.135Z,0.80
2022-09-02T19:08:23.416Z,1.00
2022-09-02T19:10:54.323Z,0.80
2022-09-02T19:13:21.453Z,0.73
2022-09-02T19:15:48.837Z,0.80
2022-09-02T19:18:16.693Z,0.63
2022-09-02T19:20:43.851Z,0.90
2022-09-02T19:23:12.374Z,0.77
2022-09-02T19:25:44.052Z,0.80
2022-09-02T19:28:13.106Z,0.87
2022-09-02T19:30:40.532Z,0.90
2022-09-02T19:33:08.802Z,1.10
2022-09-02T19:35:36.744Z,0.73
2022-09-02T19:38:04.044Z,1.10
2022-09-02T19:40:33.581Z,1.13
2022-09-02T19:43:05.255Z,1.20
2022-09-02T19:45:36.141Z,1.07
2022-09-02T19:48:07.890Z,1.30
2022-09-02T19:50:40.920Z,1.10
2022-09-02T19:53:09.165Z,1.20
2022-09-02T19:55:36.360Z,1.20
2022-09-02T19:58:03.620Z,1.03
2022-09-02T20:00:33.198Z,1.17
2022-09-02T20:03:00.674Z,1.00
2022-09-02T20:05:28.800Z,1.03
2022-09-02T20:07:56.474Z,0.90
2022-09-02T20:10:27.581Z,0.83
2022-09-02T20:12:55.570Z,1.00
2022-09-02T20:15:22.776Z,0.87
2022-09-02T20:17:50.285Z,0.60
2022-09-02T20:20:19.840Z,0.90
2022-09-02T20:22:55.978Z,0.90
2022-09-02T20:25:27.245Z,1.10
2022-09-02T20:28:13.873Z,1.00
2022-09-02T20:30:43.444Z,1.00
2022-09-02T20:33:16.414Z,1.07
2022-09-02T20:36:08.254Z,1.00
2022-09-02T20:38:41.327Z,1.00
2022-09-02T20:41:23.563Z,1.10
2022-09-02T20:44:03.504Z,0.90
2022-09-02T20:46:42.629Z,1.90
2022-09-02T20:49:29.262Z,1.70
2022-09-02T20:52:03.685Z,1.60
2022-09-02T20:54:31.215Z,1.53
2022-09-02T20:57:17.129Z,1.20
2022-09-02T21:00:03.460Z,1.33
2022-09-02T21:02:33.455Z,1.50
2022-09-02T21:05:03.592Z,1.10
2022-09-02T21:07:37.557Z,1.10
2022-09-02T21:10:06.460Z,1.20
2022-09-02T21:12:40.290Z,1.03
2022-09-02T21:15:28.777Z,1.00
2022-09-02T21:17:57.563Z,1.20
2022-09-02T21:20:43.449Z,1.50
2022-09-02T21:23:14.463Z,5.60
2022-09-02T21:26:11.153Z,2.60
2022-09-02T21:28:44.431Z,1.20
2022-09-02T21:31:26.711Z,0.90
2022-09-02T21:33:55.547Z,1.10
2022-09-02T21:36:27.644Z,1.20
2022-09-02T21:38:56.588Z,1.30
2022-09-02T21:41:29.687Z,1.30
2022-09-02T21:43:56.936Z,1.20
2022-09-02T21:46:36.812Z,1.87
2022-09-02T21:49:22.459Z,2.17
2022-09-02T21:51:52.303Z,1.40
2022-09-02T21:54:25.028Z,1.50
2022-09-02T21:56:57.956Z,1.10
2022-09-02T21:59:43.243Z,1.10
2022-09-02T22:02:19.558Z,1.53
2022-09-02T22:04:46.754Z,1.20
2022-09-02T22:07:25.159Z,1.40
2022-09-02T22:10:15.015Z,1.50
2022-09-02T22:12:47.745Z,1.30
2022-09-02T22:15:22.897Z,1.43
2022-09-02T22:17:55.425Z,1.30
2022-09-02T22:20:32.676Z,1.50
2022-09-02T22:23:03.407Z,1.20
2022-09-02T22:25:33.984Z,1.30
2022-09-02T22:28:13.774Z,1.30
2022-09-02T22:30:43.409Z,1.17
2022-09-02T22:33:19.022Z,1.30
2022-09-02T22:36:00.595Z,1.30
2022-09-02T22:38:48.026Z,1.17
2022-09-02T22:41:24.115Z,1.30
2022-09-02T22:43:54.067Z,1.23
2022-09-02T22:46:44.148Z,1.60
2022-09-02T22:49:34.410Z,1.10
2022-09-02T22:52:30.188Z,1.17
2022-09-02T22:54:57.390Z,1.60
2022-09-02T22:57:47.887Z,1.17
2022-09-02T23:00:15.986Z,1.17
2022-09-02T23:02:43.090Z,1.40
2022-09-02T23:05:44.350Z,1.30
2022-09-02T23:08:15.703Z,1.40
2022-09-02T23:11:01.954Z,1.23
2022-09-02T23:13:48.546Z,1.03
2022-09-02T23:16:19.162Z,1.20
2022-09-02T23:18:46.977Z,1.10
2022-09-02T23:21:20.151Z,1.07
2022-09-02T23:23:47.275Z,1.10
2022-09-02T23:26:31.836Z,1.10
2022-09-02T23:29:08.156Z,1.00
2022-09-02T23:31:50.668Z,1.03
2022-09-02T23:34:36.561Z,1.10
2022-09-02T23:37:26.837Z,1.10
2022-09-02T23:39:58.956Z,1.20
2022-09-02T23:42:26.421Z,1.40
2022-09-02T23:44:59.924Z,1.30
2022-09-02T23:47:37.577Z,1.60
2022-09-02T23:50:13.986Z,1.40
2022-09-02T23:52:42.905Z,1.10
2022-09-02T23:55:19.429Z,1.40
2022-09-02T23:57:55.562Z,1.30
